sensor_id;sensor_type;location;lat;lon;timestamp;P1;durP1;ratioP1;P2;durP2;ratioP2
7613;SDS011;3848;42.016;23.098;2024-01-27T00:01:07;4.60;;;3.40;;
7613;SDS011;3848;42.016;23.098;2024-01-27T00:03:34;9.17;;;3.40;;
7613;SDS011;3848;42.016;23.098;2024-01-27T00:06:01;7.40;;;3.60;;
7613;SDS011;3848;42.016;23.098;2024-01-27T00:08:29;5.63;;;3.13;;
7613;SDS011;3848;42.016;23.098;2024-01-27T00:10:56;7.63;;;3.20;;
7613;SDS011;3848;42.016;23.098;2024-01-27T00:13:23;6.10;;;2.90;;
7613;SDS011;3848;42.016;23.098;2024-01-27T00:15:50;9.00;;;2.93;;
7613;SDS011;3848;42.016;23.098;2024-01-27T00:18:19;6.43;;;2.40;;
7613;SDS011;3848;42.016;23.098;2024-01-27T00:20:46;6.67;;;2.87;;
7613;SDS011;3848;42.016;23.098;2024-01-27T00:23:13;8.80;;;2.50;;
7613;SDS011;3848;42.016;23.098;2024-01-27T00:25:42;4.20;;;2.37;;
7613;SDS011;3848;42.016;23.098;2024-01-27T00:28:08;6.83;;;3.17;;
7613;SDS011;3848;42.016;23.098;2024-01-27T00:30:35;9.53;;;2.50;;
7613;SDS011;3848;42.016;23.098;2024-01-27T00:33:03;4.83;;;2.53;;
7613;SDS011;3848;42.016;23.098;2024-01-27T00:35:30;4.17;;;2.30;;
7613;SDS011;3848;42.016;23.098;2024-01-27T00:37:57;9.50;;;4.17;;
7613;SDS011;3848;42.016;23.098;2024-01-27T00:40:24;6.83;;;3.30;;
7613;SDS011;3848;42.016;23.098;2024-01-27T00:42:53;9.07;;;3.93;;
7613;SDS011;3848;42.016;23.098;2024-01-27T00:45:20;10.93;;;4.30;;
7613;SDS011;3848;42.016;23.098;2024-01-27T00:47:49;8.30;;;4.47;;
7613;SDS011;3848;42.016;23.098;2024-01-27T00:50:16;14.30;;;4.83;;
7613;SDS011;3848;42.016;23.098;2024-01-27T00:52:43;10.37;;;5.00;;
7613;SDS011;3848;42.016;23.098;2024-01-27T00:55:10;8.37;;;4.70;;
7613;SDS011;3848;42.016;23.098;2024-01-27T00:57:37;9.73;;;5.57;;
7613;SDS011;3848;42.016;23.098;2024-01-27T01:00:06;12.63;;;5.77;;
7613;SDS011;3848;42.016;23.098;2024-01-27T01:02:35;7.77;;;5.13;;
7613;SDS011;3848;42.016;23.098;2024-01-27T01:05:02;9.67;;;4.93;;
7613;SDS011;3848;42.016;23.098;2024-01-27T01:07:30;11.33;;;4.93;;
7613;SDS011;3848;42.016;23.098;2024-01-27T01:09:57;10.13;;;4.47;;
7613;SDS011;3848;42.016;23.098;2024-01-27T01:12:25;12.93;;;4.40;;
7613;SDS011;3848;42.016;23.098;2024-01-27T01:14:52;10.00;;;4.30;;
7613;SDS011;3848;42.016;23.098;2024-01-27T01:17:21;6.47;;;3.43;;
7613;SDS011;3848;42.016;23.098;2024-01-27T01:19:48;11.53;;;3.87;;
7613;SDS011;3848;42.016;23.098;2024-01-27T01:22:15;3.37;;;2.80;;
7613;SDS011;3848;42.016;23.098;2024-01-27T01:24:42;9.00;;;3.87;;
7613;SDS011;3848;42.016;23.098;2024-01-27T01:27:09;7.03;;;3.93;;
7613;SDS011;3848;42.016;23.098;2024-01-27T01:29:36;7.23;;;4.10;;
7613;SDS011;3848;42.016;23.098;2024-01-27T01:32:03;10.10;;;4.30;;
7613;SDS011;3848;42.016;23.098;2024-01-27T01:34:32;9.77;;;4.90;;
7613;SDS011;3848;42.016;23.098;2024-01-27T01:36:59;10.83;;;4.57;;
7613;SDS011;3848;42.016;23.098;2024-01-27T01:39:27;7.97;;;4.17;;
7613;SDS011;3848;42.016;23.098;2024-01-27T01:41:54;8.80;;;4.07;;
7613;SDS011;3848;42.016;23.098;2024-01-27T01:44:21;5.93;;;3.47;;
7613;SDS011;3848;42.016;23.098;2024-01-27T01:46:48;9.77;;;5.27;;
7613;SDS011;3848;42.016;23.098;2024-01-27T01:49:15;15.63;;;5.80;;
7613;SDS011;3848;42.016;23.098;2024-01-27T01:51:43;15.03;;;5.43;;
7613;SDS011;3848;42.016;23.098;2024-01-27T01:54:11;10.67;;;5.57;;
7613;SDS011;3848;42.016;23.098;2024-01-27T01:56:38;11.17;;;4.93;;
7613;SDS011;3848;42.016;23.098;2024-01-27T01:59:05;7.70;;;4.47;;
7613;SDS011;3848;42.016;23.098;2024-01-27T02:01:33;11.93;;;4.43;;
7613;SDS011;3848;42.016;23.098;2024-01-27T02:04:00;10.90;;;6.07;;
7613;SDS011;3848;42.016;23.098;2024-01-27T02:06:27;11.40;;;5.43;;
7613;SDS011;3848;42.016;23.098;2024-01-27T02:08:55;7.17;;;4.87;;
7613;SDS011;3848;42.016;23.098;2024-01-27T02:11:22;11.63;;;5.37;;
7613;SDS011;3848;42.016;23.098;2024-01-27T02:13:49;9.97;;;5.27;;
7613;SDS011;3848;42.016;23.098;2024-01-27T02:16:17;14.40;;;5.07;;
7613;SDS011;3848;42.016;23.098;2024-01-27T02:18:44;12.50;;;4.47;;
7613;SDS011;3848;42.016;23.098;2024-01-27T02:21:11;15.10;;;4.67;;
7613;SDS011;3848;42.016;23.098;2024-01-27T02:23:38;9.90;;;3.63;;
7613;SDS011;3848;42.016;23.098;2024-01-27T02:26:06;11.67;;;5.57;;
7613;SDS011;3848;42.016;23.098;2024-01-27T02:28:33;9.43;;;4.97;;
7613;SDS011;3848;42.016;23.098;2024-01-27T02:31:00;14.50;;;4.73;;
7613;SDS011;3848;42.016;23.098;2024-01-27T02:33:27;11.07;;;5.17;;
7613;SDS011;3848;42.016;23.098;2024-01-27T02:35:55;8.50;;;4.10;;
7613;SDS011;3848;42.016;23.098;2024-01-27T02:38:22;7.27;;;4.50;;
7613;SDS011;3848;42.016;23.098;2024-01-27T02:40:49;6.43;;;4.43;;
7613;SDS011;3848;42.016;23.098;2024-01-27T02:43:17;11.77;;;4.53;;
7613;SDS011;3848;42.016;23.098;2024-01-27T02:45:44;5.80;;;4.43;;
7613;SDS011;3848;42.016;23.098;2024-01-27T02:48:11;11.13;;;4.80;;
7613;SDS011;3848;42.016;23.098;2024-01-27T02:50:39;10.93;;;4.57;;
7613;SDS011;3848;42.016;23.098;2024-01-27T02:53:06;7.00;;;4.07;;
7613;SDS011;3848;42.016;23.098;2024-01-27T02:55:33;9.83;;;4.50;;
7613;SDS011;3848;42.016;23.098;2024-01-27T02:58:00;16.80;;;4.80;;
7613;SDS011;3848;42.016;23.098;2024-01-27T03:00:28;9.53;;;4.53;;
7613;SDS011;3848;42.016;23.098;2024-01-27T03:02:55;8.80;;;4.83;;
7613;SDS011;3848;42.016;23.098;2024-01-27T03:05:24;11.90;;;5.57;;
7613;SDS011;3848;42.016;23.098;2024-01-27T03:07:51;9.27;;;4.73;;
7613;SDS011;3848;42.016;23.098;2024-01-27T03:10:18;21.63;;;6.03;;
7613;SDS011;3848;42.016;23.098;2024-01-27T03:12:45;9.53;;;5.10;;
7613;SDS011;3848;42.016;23.098;2024-01-27T03:15:12;12.93;;;4.77;;
7613;SDS011;3848;42.016;23.098;2024-01-27T03:17:40;10.83;;;4.80;;
7613;SDS011;3848;42.016;23.098;2024-01-27T03:20:08;14.97;;;5.10;;
7613;SDS011;3848;42.016;23.098;2024-01-27T03:22:36;14.17;;;5.97;;
7613;SDS011;3848;42.016;23.098;2024-01-27T03:25:03;13.37;;;6.00;;
7613;SDS011;3848;42.016;23.098;2024-01-27T03:27:30;14.77;;;6.10;;
7613;SDS011;3848;42.016;23.098;2024-01-27T03:29:59;9.30;;;5.20;;
7613;SDS011;3848;42.016;23.098;2024-01-27T03:32:27;11.97;;;6.57;;
7613;SDS011;3848;42.016;23.098;2024-01-27T03:34:58;15.50;;;6.03;;
7613;SDS011;3848;42.016;23.098;2024-01-27T03:37:25;12.87;;;5.60;;
7613;SDS011;3848;42.016;23.098;2024-01-27T03:39:52;12.87;;;6.33;;
7613;SDS011;3848;42.016;23.098;2024-01-27T03:42:19;12.60;;;6.00;;
7613;SDS011;3848;42.016;23.098;2024-01-27T03:44:46;9.73;;;5.90;;
7613;SDS011;3848;42.016;23.098;2024-01-27T03:47:13;15.23;;;6.70;;
7613;SDS011;3848;42.016;23.098;2024-01-27T03:49:40;16.53;;;7.37;;
7613;SDS011;3848;42.016;23.098;2024-01-27T03:52:09;16.00;;;6.93;;
7613;SDS011;3848;42.016;23.098;2024-01-27T03:54:37;11.80;;;6.50;;
7613;SDS011;3848;42.016;23.098;2024-01-27T03:57:04;17.53;;;7.23;;
7613;SDS011;3848;42.016;23.098;2024-01-27T03:59:31;11.77;;;6.17;;
7613;SDS011;3848;42.016;23.098;2024-01-27T04:01:58;19.20;;;7.00;;
7613;SDS011;3848;42.016;23.098;2024-01-27T04:04:25;14.60;;;7.13;;
7613;SDS011;3848;42.016;23.098;2024-01-27T04:06:52;13.63;;;7.07;;
7613;SDS011;3848;42.016;23.098;2024-01-27T04:09:21;9.93;;;6.20;;
7613;SDS011;3848;42.016;23.098;2024-01-27T04:11:48;14.57;;;6.50;;
7613;SDS011;3848;42.016;23.098;2024-01-27T04:14:15;10.30;;;6.27;;
7613;SDS011;3848;42.016;23.098;2024-01-27T04:16:42;12.17;;;6.53;;
7613;SDS011;3848;42.016;23.098;2024-01-27T04:19:09;12.83;;;6.67;;
7613;SDS011;3848;42.016;23.098;2024-01-27T04:21:36;11.00;;;6.30;;
7613;SDS011;3848;42.016;23.098;2024-01-27T04:24:03;18.30;;;5.87;;
7613;SDS011;3848;42.016;23.098;2024-01-27T04:26:32;11.63;;;5.00;;
7613;SDS011;3848;42.016;23.098;2024-01-27T04:29:00;20.50;;;7.13;;
7613;SDS011;3848;42.016;23.098;2024-01-27T04:31:27;12.33;;;6.03;;
7613;SDS011;3848;42.016;23.098;2024-01-27T04:33:56;12.43;;;6.10;;
7613;SDS011;3848;42.016;23.098;2024-01-27T04:36:26;15.40;;;7.07;;
7613;SDS011;3848;42.016;23.098;2024-01-27T04:38:54;12.27;;;6.17;;
7613;SDS011;3848;42.016;23.098;2024-01-27T04:41:21;11.60;;;6.63;;
7613;SDS011;3848;42.016;23.098;2024-01-27T04:43:50;12.20;;;5.70;;
7613;SDS011;3848;42.016;23.098;2024-01-27T04:46:18;10.23;;;6.43;;
7613;SDS011;3848;42.016;23.098;2024-01-27T04:48:45;12.57;;;6.40;;
7613;SDS011;3848;42.016;23.098;2024-01-27T04:51:12;10.37;;;6.07;;
7613;SDS011;3848;42.016;23.098;2024-01-27T04:53:39;12.97;;;6.80;;
7613;SDS011;3848;42.016;23.098;2024-01-27T04:56:06;15.67;;;6.57;;
7613;SDS011;3848;42.016;23.098;2024-01-27T04:58:34;12.17;;;6.90;;
7613;SDS011;3848;42.016;23.098;2024-01-27T05:01:03;12.90;;;6.50;;
7613;SDS011;3848;42.016;23.098;2024-01-27T05:03:31;9.47;;;5.73;;
7613;SDS011;3848;42.016;23.098;2024-01-27T05:05:58;15.17;;;7.20;;
7613;SDS011;3848;42.016;23.098;2024-01-27T05:08:25;13.73;;;6.93;;
7613;SDS011;3848;42.016;23.098;2024-01-27T05:10:52;20.20;;;6.00;;
7613;SDS011;3848;42.016;23.098;2024-01-27T05:13:19;14.43;;;6.33;;
7613;SDS011;3848;42.016;23.098;2024-01-27T05:15:46;16.10;;;6.30;;
7613;SDS011;3848;42.016;23.098;2024-01-27T05:18:16;15.53;;;6.80;;
7613;SDS011;3848;42.016;23.098;2024-01-27T05:20:43;10.93;;;5.93;;
7613;SDS011;3848;42.016;23.098;2024-01-27T05:23:10;13.57;;;7.07;;
7613;SDS011;3848;42.016;23.098;2024-01-27T05:25:37;8.87;;;5.20;;
7613;SDS011;3848;42.016;23.098;2024-01-27T05:28:05;15.07;;;6.47;;
7613;SDS011;3848;42.016;23.098;2024-01-27T05:30:32;14.40;;;6.47;;
7613;SDS011;3848;42.016;23.098;2024-01-27T05:32:59;13.60;;;7.33;;
7613;SDS011;3848;42.016;23.098;2024-01-27T05:35:28;12.43;;;6.80;;
7613;SDS011;3848;42.016;23.098;2024-01-27T05:37:55;16.87;;;7.63;;
7613;SDS011;3848;42.016;23.098;2024-01-27T05:40:22;17.23;;;7.87;;
7613;SDS011;3848;42.016;23.098;2024-01-27T05:42:49;15.67;;;7.17;;
7613;SDS011;3848;42.016;23.098;2024-01-27T05:45:16;12.93;;;6.47;;
7613;SDS011;3848;42.016;23.098;2024-01-27T05:47:44;13.73;;;6.93;;
7613;SDS011;3848;42.016;23.098;2024-01-27T05:50:11;12.63;;;7.37;;
7613;SDS011;3848;42.016;23.098;2024-01-27T05:52:39;21.07;;;9.13;;
7613;SDS011;3848;42.016;23.098;2024-01-27T05:55:07;22.67;;;9.43;;
7613;SDS011;3848;42.016;23.098;2024-01-27T05:57:35;20.63;;;8.73;;
7613;SDS011;3848;42.016;23.098;2024-01-27T06:00:02;25.77;;;9.63;;
7613;SDS011;3848;42.016;23.098;2024-01-27T06:02:30;21.40;;;9.63;;
7613;SDS011;3848;42.016;23.098;2024-01-27T06:04:57;24.87;;;9.17;;
7613;SDS011;3848;42.016;23.098;2024-01-27T06:07:24;18.47;;;8.63;;
7613;SDS011;3848;42.016;23.098;2024-01-27T06:09:52;15.60;;;8.40;;
7613;SDS011;3848;42.016;23.098;2024-01-27T06:12:19;10.90;;;7.63;;
7613;SDS011;3848;42.016;23.098;2024-01-27T06:14:46;16.73;;;8.10;;
7613;SDS011;3848;42.016;23.098;2024-01-27T06:17:13;16.47;;;7.97;;
7613;SDS011;3848;42.016;23.098;2024-01-27T06:19:41;13.93;;;7.60;;
7613;SDS011;3848;42.016;23.098;2024-01-27T06:22:08;20.30;;;7.17;;
7613;SDS011;3848;42.016;23.098;2024-01-27T06:24:41;14.23;;;7.83;;
7613;SDS011;3848;42.016;23.098;2024-01-27T06:27:10;11.30;;;7.43;;
7613;SDS011;3848;42.016;23.098;2024-01-27T06:29:37;15.47;;;9.00;;
7613;SDS011;3848;42.016;23.098;2024-01-27T06:32:05;20.97;;;9.23;;
7613;SDS011;3848;42.016;23.098;2024-01-27T06:34:32;21.53;;;9.13;;
7613;SDS011;3848;42.016;23.098;2024-01-27T06:36:59;15.87;;;7.33;;
7613;SDS011;3848;42.016;23.098;2024-01-27T06:39:26;17.97;;;8.40;;
7613;SDS011;3848;42.016;23.098;2024-01-27T06:41:54;22.73;;;9.63;;
7613;SDS011;3848;42.016;23.098;2024-01-27T06:44:23;19.43;;;10.47;;
7613;SDS011;3848;42.016;23.098;2024-01-27T06:46:49;18.97;;;8.43;;
7613;SDS011;3848;42.016;23.098;2024-01-27T06:49:16;18.43;;;10.50;;
7613;SDS011;3848;42.016;23.098;2024-01-27T06:51:43;18.50;;;9.80;;
7613;SDS011;3848;42.016;23.098;2024-01-27T06:54:10;21.37;;;8.73;;
7613;SDS011;3848;42.016;23.098;2024-01-27T06:56:37;21.90;;;11.17;;
7613;SDS011;3848;42.016;23.098;2024-01-27T06:59:04;22.23;;;11.90;;
7613;SDS011;3848;42.016;23.098;2024-01-27T07:01:33;20.63;;;9.50;;
7613;SDS011;3848;42.016;23.098;2024-01-27T07:04:00;16.47;;;8.97;;
7613;SDS011;3848;42.016;23.098;2024-01-27T07:06:27;24.17;;;13.67;;
7613;SDS011;3848;42.016;23.098;2024-01-27T07:08:54;27.03;;;14.60;;
7613;SDS011;3848;42.016;23.098;2024-01-27T07:11:21;32.23;;;14.20;;
7613;SDS011;3848;42.016;23.098;2024-01-27T07:13:48;24.03;;;12.40;;
7613;SDS011;3848;42.016;23.098;2024-01-27T07:16:15;21.40;;;9.90;;
7613;SDS011;3848;42.016;23.098;2024-01-27T07:18:43;25.53;;;11.90;;
7613;SDS011;3848;42.016;23.098;2024-01-27T07:21:14;21.53;;;12.10;;
7613;SDS011;3848;42.016;23.098;2024-01-27T07:23:41;16.57;;;10.30;;
7613;SDS011;3848;42.016;23.098;2024-01-27T07:26:09;19.43;;;10.67;;
7613;SDS011;3848;42.016;23.098;2024-01-27T07:28:36;21.37;;;10.53;;
7613;SDS011;3848;42.016;23.098;2024-01-27T07:31:03;16.97;;;9.57;;
7613;SDS011;3848;42.016;23.098;2024-01-27T07:33:30;19.37;;;10.17;;
7613;SDS011;3848;42.016;23.098;2024-01-27T07:35:58;12.93;;;7.67;;
7613;SDS011;3848;42.016;23.098;2024-01-27T07:38:26;18.20;;;8.90;;
7613;SDS011;3848;42.016;23.098;2024-01-27T07:40:54;20.90;;;10.77;;
7613;SDS011;3848;42.016;23.098;2024-01-27T07:43:21;19.80;;;10.20;;
7613;SDS011;3848;42.016;23.098;2024-01-27T07:45:48;20.73;;;10.93;;
7613;SDS011;3848;42.016;23.098;2024-01-27T07:48:14;19.20;;;10.43;;
7613;SDS011;3848;42.016;23.098;2024-01-27T07:50:41;27.00;;;13.73;;
7613;SDS011;3848;42.016;23.098;2024-01-27T07:53:15;31.80;;;15.20;;
7613;SDS011;3848;42.016;23.098;2024-01-27T07:55:42;36.73;;;17.77;;
7613;SDS011;3848;42.016;23.098;2024-01-27T07:58:09;43.37;;;18.27;;
7613;SDS011;3848;42.016;23.098;2024-01-27T08:00:36;31.20;;;15.93;;
7613;SDS011;3848;42.016;23.098;2024-01-27T08:03:03;40.13;;;19.53;;
7613;SDS011;3848;42.016;23.098;2024-01-27T08:05:30;56.13;;;26.27;;
7613;SDS011;3848;42.016;23.098;2024-01-27T08:07:57;41.80;;;20.23;;
7613;SDS011;3848;42.016;23.098;2024-01-27T08:10:26;29.73;;;16.40;;
7613;SDS011;3848;42.016;23.098;2024-01-27T08:12:53;30.53;;;16.00;;
7613;SDS011;3848;42.016;23.098;2024-01-27T08:15:20;26.50;;;17.53;;
7613;SDS011;3848;42.016;23.098;2024-01-27T08:17:47;29.10;;;13.63;;
7613;SDS011;3848;42.016;23.098;2024-01-27T08:20:14;31.70;;;15.60;;
7613;SDS011;3848;42.016;23.098;2024-01-27T08:22:41;29.73;;;14.33;;
7613;SDS011;3848;42.016;23.098;2024-01-27T08:25:08;30.77;;;14.23;;
7613;SDS011;3848;42.016;23.098;2024-01-27T08:27:37;33.97;;;14.50;;
7613;SDS011;3848;42.016;23.098;2024-01-27T08:30:04;26.77;;;14.90;;
7613;SDS011;3848;42.016;23.098;2024-01-27T08:32:32;24.30;;;13.40;;
7613;SDS011;3848;42.016;23.098;2024-01-27T08:35:00;32.70;;;14.93;;
7613;SDS011;3848;42.016;23.098;2024-01-27T08:37:27;22.50;;;12.23;;
7613;SDS011;3848;42.016;23.098;2024-01-27T08:39:54;27.57;;;13.80;;
7613;SDS011;3848;42.016;23.098;2024-01-27T08:42:21;28.70;;;12.30;;
7613;SDS011;3848;42.016;23.098;2024-01-27T08:44:50;29.60;;;14.93;;
7613;SDS011;3848;42.016;23.098;2024-01-27T08:47:17;25.27;;;12.23;;
7613;SDS011;3848;42.016;23.098;2024-01-27T08:49:44;23.67;;;11.63;;
7613;SDS011;3848;42.016;23.098;2024-01-27T08:52:11;22.27;;;10.67;;
7613;SDS011;3848;42.016;23.098;2024-01-27T08:54:38;23.17;;;11.27;;
7613;SDS011;3848;42.016;23.098;2024-01-27T08:57:06;18.70;;;11.27;;
7613;SDS011;3848;42.016;23.098;2024-01-27T08:59:33;22.30;;;12.70;;
7613;SDS011;3848;42.016;23.098;2024-01-27T09:02:02;19.37;;;11.43;;
7613;SDS011;3848;42.016;23.098;2024-01-27T09:04:30;21.37;;;12.03;;
7613;SDS011;3848;42.016;23.098;2024-01-27T09:06:57;27.63;;;12.60;;
7613;SDS011;3848;42.016;23.098;2024-01-27T09:09:24;25.17;;;13.70;;
7613;SDS011;3848;42.016;23.098;2024-01-27T09:11:51;30.73;;;15.73;;
7613;SDS011;3848;42.016;23.098;2024-01-27T09:14:18;30.27;;;14.57;;
7613;SDS011;3848;42.016;23.098;2024-01-27T09:16:45;28.03;;;14.93;;
7613;SDS011;3848;42.016;23.098;2024-01-27T09:19:14;33.23;;;17.80;;
7613;SDS011;3848;42.016;23.098;2024-01-27T09:21:40;31.33;;;15.53;;
7613;SDS011;3848;42.016;23.098;2024-01-27T09:24:07;18.30;;;10.00;;
7613;SDS011;3848;42.016;23.098;2024-01-27T09:26:34;22.70;;;10.73;;
7613;SDS011;3848;42.016;23.098;2024-01-27T09:29:01;36.63;;;13.33;;
7613;SDS011;3848;42.016;23.098;2024-01-27T09:31:28;24.67;;;13.13;;
7613;SDS011;3848;42.016;23.098;2024-01-27T09:33:55;37.37;;;18.67;;
7613;SDS011;3848;42.016;23.098;2024-01-27T09:36:24;62.10;;;27.37;;
7613;SDS011;3848;42.016;23.098;2024-01-27T09:38:51;30.20;;;13.17;;
7613;SDS011;3848;42.016;23.098;2024-01-27T09:41:19;27.57;;;12.57;;
7613;SDS011;3848;42.016;23.098;2024-01-27T09:43:47;28.17;;;14.43;;
7613;SDS011;3848;42.016;23.098;2024-01-27T09:46:14;26.67;;;14.20;;
7613;SDS011;3848;42.016;23.098;2024-01-27T09:48:42;31.17;;;15.83;;
7613;SDS011;3848;42.016;23.098;2024-01-27T09:51:09;20.43;;;9.57;;
7613;SDS011;3848;42.016;23.098;2024-01-27T09:53:38;27.07;;;13.03;;
7613;SDS011;3848;42.016;23.098;2024-01-27T09:56:05;33.50;;;18.13;;
7613;SDS011;3848;42.016;23.098;2024-01-27T09:58:33;34.30;;;18.77;;
7613;SDS011;3848;42.016;23.098;2024-01-27T10:01:01;26.60;;;14.70;;
7613;SDS011;3848;42.016;23.098;2024-01-27T10:03:28;33.50;;;16.47;;
7613;SDS011;3848;42.016;23.098;2024-01-27T10:05:56;30.13;;;14.43;;
7613;SDS011;3848;42.016;23.098;2024-01-27T10:08:23;28.77;;;14.43;;
7613;SDS011;3848;42.016;23.098;2024-01-27T10:10:53;31.90;;;15.53;;
7613;SDS011;3848;42.016;23.098;2024-01-27T10:13:21;32.60;;;15.33;;
7613;SDS011;3848;42.016;23.098;2024-01-27T10:16:00;38.13;;;18.63;;
7613;SDS011;3848;42.016;23.098;2024-01-27T10:18:28;39.43;;;16.37;;
7613;SDS011;3848;42.016;23.098;2024-01-27T10:20:55;31.07;;;19.20;;
7613;SDS011;3848;42.016;23.098;2024-01-27T10:23:23;26.53;;;16.30;;
7613;SDS011;3848;42.016;23.098;2024-01-27T10:25:50;37.30;;;15.87;;
7613;SDS011;3848;42.016;23.098;2024-01-27T10:28:19;28.13;;;14.17;;
7613;SDS011;3848;42.016;23.098;2024-01-27T10:30:47;28.93;;;14.20;;
7613;SDS011;3848;42.016;23.098;2024-01-27T10:33:14;31.43;;;14.13;;
7613;SDS011;3848;42.016;23.098;2024-01-27T10:35:42;25.33;;;12.13;;
7613;SDS011;3848;42.016;23.098;2024-01-27T10:38:10;23.63;;;12.73;;
7613;SDS011;3848;42.016;23.098;2024-01-27T10:40:36;21.87;;;10.30;;
7613;SDS011;3848;42.016;23.098;2024-01-27T10:43:04;24.93;;;11.20;;
7613;SDS011;3848;42.016;23.098;2024-01-27T10:45:35;18.60;;;8.83;;
7613;SDS011;3848;42.016;23.098;2024-01-27T10:48:04;39.43;;;13.33;;
7613;SDS011;3848;42.016;23.098;2024-01-27T10:50:34;24.33;;;11.37;;
7613;SDS011;3848;42.016;23.098;2024-01-27T10:53:03;34.37;;;15.30;;
7613;SDS011;3848;42.016;23.098;2024-01-27T10:55:32;37.00;;;19.47;;
7613;SDS011;3848;42.016;23.098;2024-01-27T10:58:00;35.70;;;17.73;;
7613;SDS011;3848;42.016;23.098;2024-01-27T11:00:28;32.10;;;18.13;;
7613;SDS011;3848;42.016;23.098;2024-01-27T11:02:59;29.47;;;14.73;;
7613;SDS011;3848;42.016;23.098;2024-01-27T11:05:28;28.67;;;16.10;;
7613;SDS011;3848;42.016;23.098;2024-01-27T11:07:55;35.37;;;15.80;;
7613;SDS011;3848;42.016;23.098;2024-01-27T11:10:25;29.77;;;14.83;;
7613;SDS011;3848;42.016;23.098;2024-01-27T11:13:00;28.10;;;14.73;;
7613;SDS011;3848;42.016;23.098;2024-01-27T11:15:27;31.67;;;13.00;;
7613;SDS011;3848;42.016;23.098;2024-01-27T11:17:56;30.40;;;16.57;;
7613;SDS011;3848;42.016;23.098;2024-01-27T11:20:27;24.37;;;14.40;;
7613;SDS011;3848;42.016;23.098;2024-01-27T11:23:07;27.83;;;13.37;;
7613;SDS011;3848;42.016;23.098;2024-01-27T11:25:35;28.00;;;16.00;;
7613;SDS011;3848;42.016;23.098;2024-01-27T11:28:10;36.73;;;15.43;;
7613;SDS011;3848;42.016;23.098;2024-01-27T11:30:38;28.40;;;15.50;;
7613;SDS011;3848;42.016;23.098;2024-01-27T11:33:06;32.23;;;17.00;;
7613;SDS011;3848;42.016;23.098;2024-01-27T11:35:33;27.07;;;15.37;;
7613;SDS011;3848;42.016;23.098;2024-01-27T11:38:01;29.50;;;14.73;;
7613;SDS011;3848;42.016;23.098;2024-01-27T11:40:28;33.87;;;18.10;;
7613;SDS011;3848;42.016;23.098;2024-01-27T11:42:55;41.17;;;19.93;;
7613;SDS011;3848;42.016;23.098;2024-01-27T11:45:23;46.27;;;24.80;;
7613;SDS011;3848;42.016;23.098;2024-01-27T11:47:50;55.77;;;27.97;;
7613;SDS011;3848;42.016;23.098;2024-01-27T11:50:18;37.80;;;18.07;;
7613;SDS011;3848;42.016;23.098;2024-01-27T11:52:46;34.17;;;18.03;;
7613;SDS011;3848;42.016;23.098;2024-01-27T11:55:13;35.73;;;18.67;;
7613;SDS011;3848;42.016;23.098;2024-01-27T11:57:41;32.40;;;17.37;;
7613;SDS011;3848;42.016;23.098;2024-01-27T12:00:08;36.77;;;19.37;;
7613;SDS011;3848;42.016;23.098;2024-01-27T12:02:36;35.03;;;18.47;;
7613;SDS011;3848;42.016;23.098;2024-01-27T12:05:03;35.00;;;18.50;;
7613;SDS011;3848;42.016;23.098;2024-01-27T12:07:32;35.43;;;19.33;;
7613;SDS011;3848;42.016;23.098;2024-01-27T12:09:59;33.57;;;18.23;;
7613;SDS011;3848;42.016;23.098;2024-01-27T12:12:26;34.77;;;19.27;;
7613;SDS011;3848;42.016;23.098;2024-01-27T12:14:53;30.93;;;15.63;;
7613;SDS011;3848;42.016;23.098;2024-01-27T12:17:21;27.33;;;15.50;;
7613;SDS011;3848;42.016;23.098;2024-01-27T12:19:49;25.87;;;13.97;;
7613;SDS011;3848;42.016;23.098;2024-01-27T12:22:21;25.87;;;12.13;;
7613;SDS011;3848;42.016;23.098;2024-01-27T12:24:52;18.60;;;8.77;;
7613;SDS011;3848;42.016;23.098;2024-01-27T12:27:20;9.83;;;5.60;;
7613;SDS011;3848;42.016;23.098;2024-01-27T12:29:48;4.80;;;3.80;;
7613;SDS011;3848;42.016;23.098;2024-01-27T12:32:15;5.83;;;3.90;;
7613;SDS011;3848;42.016;23.098;2024-01-27T12:34:42;3.30;;;3.00;;
7613;SDS011;3848;42.016;23.098;2024-01-27T12:37:11;2.87;;;2.23;;
7613;SDS011;3848;42.016;23.098;2024-01-27T12:39:40;5.97;;;2.77;;
7613;SDS011;3848;42.016;23.098;2024-01-27T12:42:11;5.50;;;2.70;;
7613;SDS011;3848;42.016;23.098;2024-01-27T12:44:38;3.80;;;2.07;;
7613;SDS011;3848;42.016;23.098;2024-01-27T12:47:06;6.17;;;2.00;;
7613;SDS011;3848;42.016;23.098;2024-01-27T12:49:34;3.20;;;2.33;;
7613;SDS011;3848;42.016;23.098;2024-01-27T12:52:01;5.07;;;2.70;;
7613;SDS011;3848;42.016;23.098;2024-01-27T12:54:28;3.73;;;2.80;;
7613;SDS011;3848;42.016;23.098;2024-01-27T12:56:55;3.53;;;2.60;;
7613;SDS011;3848;42.016;23.098;2024-01-27T12:59:24;4.17;;;2.67;;
7613;SDS011;3848;42.016;23.098;2024-01-27T13:01:51;2.97;;;2.67;;
7613;SDS011;3848;42.016;23.098;2024-01-27T13:04:18;4.60;;;2.87;;
7613;SDS011;3848;42.016;23.098;2024-01-27T13:06:45;3.97;;;2.53;;
7613;SDS011;3848;42.016;23.098;2024-01-27T13:09:12;3.33;;;3.00;;
7613;SDS011;3848;42.016;23.098;2024-01-27T13:11:39;5.87;;;2.67;;
7613;SDS011;3848;42.016;23.098;2024-01-27T13:14:06;4.43;;;2.40;;
7613;SDS011;3848;42.016;23.098;2024-01-27T13:16:36;2.53;;;1.80;;
7613;SDS011;3848;42.016;23.098;2024-01-27T13:19:03;3.27;;;2.10;;
7613;SDS011;3848;42.016;23.098;2024-01-27T13:21:30;2.03;;;1.93;;
7613;SDS011;3848;42.016;23.098;2024-01-27T13:23:57;3.80;;;2.50;;
7613;SDS011;3848;42.016;23.098;2024-01-27T13:26:24;2.97;;;2.23;;
7613;SDS011;3848;42.016;23.098;2024-01-27T13:28:51;3.70;;;2.23;;
7613;SDS011;3848;42.016;23.098;2024-01-27T13:31:18;3.27;;;2.97;;
7613;SDS011;3848;42.016;23.098;2024-01-27T13:33:46;3.53;;;2.00;;
7613;SDS011;3848;42.016;23.098;2024-01-27T13:36:13;4.90;;;1.90;;
7613;SDS011;3848;42.016;23.098;2024-01-27T13:38:41;6.13;;;2.07;;
7613;SDS011;3848;42.016;23.098;2024-01-27T13:41:08;10.77;;;2.37;;
7613;SDS011;3848;42.016;23.098;2024-01-27T13:43:35;3.67;;;2.37;;
7613;SDS011;3848;42.016;23.098;2024-01-27T13:46:02;2.30;;;1.67;;
7613;SDS011;3848;42.016;23.098;2024-01-27T13:48:29;4.53;;;1.87;;
7613;SDS011;3848;42.016;23.098;2024-01-27T13:50:58;2.00;;;1.80;;
7613;SDS011;3848;42.016;23.098;2024-01-27T13:53:25;3.70;;;2.10;;
7613;SDS011;3848;42.016;23.098;2024-01-27T13:55:52;3.80;;;2.67;;
7613;SDS011;3848;42.016;23.098;2024-01-27T13:58:19;4.40;;;1.80;;
7613;SDS011;3848;42.016;23.098;2024-01-27T14:00:47;5.30;;;2.73;;
7613;SDS011;3848;42.016;23.098;2024-01-27T14:03:14;2.10;;;1.70;;
7613;SDS011;3848;42.016;23.098;2024-01-27T14:05:41;5.50;;;2.00;;
7613;SDS011;3848;42.016;23.098;2024-01-27T14:08:09;1.83;;;1.70;;
7613;SDS011;3848;42.016;23.098;2024-01-27T14:10:36;2.47;;;1.90;;
7613;SDS011;3848;42.016;23.098;2024-01-27T14:13:04;63.50;;;25.37;;
7613;SDS011;3848;42.016;23.098;2024-01-27T14:15:34;2.87;;;1.80;;
7613;SDS011;3848;42.016;23.098;2024-01-27T14:18:01;3.40;;;2.33;;
7613;SDS011;3848;42.016;23.098;2024-01-27T14:20:29;3.80;;;2.50;;
7613;SDS011;3848;42.016;23.098;2024-01-27T14:22:57;6.20;;;2.20;;
7613;SDS011;3848;42.016;23.098;2024-01-27T14:25:26;2.50;;;2.00;;
7613;SDS011;3848;42.016;23.098;2024-01-27T14:27:53;2.47;;;2.00;;
7613;SDS011;3848;42.016;23.098;2024-01-27T14:30:20;2.83;;;2.00;;
7613;SDS011;3848;42.016;23.098;2024-01-27T14:32:48;2.10;;;1.90;;
7613;SDS011;3848;42.016;23.098;2024-01-27T14:35:15;2.70;;;2.00;;
7613;SDS011;3848;42.016;23.098;2024-01-27T14:37:42;1.93;;;1.57;;
7613;SDS011;3848;42.016;23.098;2024-01-27T14:40:09;2.47;;;1.97;;
7613;SDS011;3848;42.016;23.098;2024-01-27T14:42:40;4.27;;;2.20;;
7613;SDS011;3848;42.016;23.098;2024-01-27T14:45:07;5.23;;;2.60;;
7613;SDS011;3848;42.016;23.098;2024-01-27T14:47:35;3.73;;;2.90;;
7613;SDS011;3848;42.016;23.098;2024-01-27T14:50:02;3.47;;;3.00;;